Terminal Aerodrome Forecast
Issued by NWS Kansas City/Pleasant Hill, MO

Home | Current Version | Previous Version | Text Only | Print | Product List | Glossary On
Versions: 1 2 3 4 5 6 7 8 9 10 11 12 13 14 15 16 17
659
FTUS43 KEAX 121515 AAA
TAFMCI
TAF AMD
KMCI 121515Z 1215/1312 36012KT P6SM BKN018
     FM121800 35012G20KT P6SM SCT030
     FM122300 03009KT P6SM SCT100=

USA.gov is the U.S. government's official web portal to all federal, state and local government web resources and services.